createdAt,value
2018-12-12T00:01:06.921Z,95862.51
2018-12-12T00:03:35.292Z,95863.02
2018-12-12T00:06:05.080Z,95863.05
2018-12-12T00:08:33.503Z,95855.67
2018-12-12T00:11:04.360Z,95850.66
2018-12-12T00:13:32.764Z,95854.16
2018-12-12T00:16:03.688Z,95852.06
2018-12-12T00:18:32.096Z,95852.94
2018-12-12T00:21:00.472Z,95848.67
2018-12-12T00:23:28.872Z,95843.31
2018-12-12T00:25:57.247Z,95849.34
2018-12-12T00:28:25.664Z,95848.60
2018-12-12T00:30:54.168Z,95857.39
2018-12-12T00:33:22.568Z,95876.34
2018-12-12T00:35:50.957Z,95873.22
2018-12-12T00:38:19.364Z,95878.34
2018-12-12T00:40:47.752Z,95877.89
2018-12-12T00:43:16.187Z,95879.73
2018-12-12T00:45:44.620Z,95882.09
2018-12-12T00:48:13.017Z,95879.13
2018-12-12T00:50:41.512Z,95876.53
2018-12-12T00:53:09.900Z,95874.41
2018-12-12T00:55:38.288Z,95877.55
2018-12-12T00:58:06.692Z,95876.27
2018-12-12T01:00:35.068Z,95870.75
2018-12-12T01:03:05.187Z,95873.21
2018-12-12T01:05:33.680Z,95874.77
2018-12-12T01:08:05.425Z,95872.34
2018-12-12T01:10:33.800Z,95883.07
2018-12-12T01:13:06.044Z,95879.84
2018-12-12T01:15:34.432Z,95883.37
2018-12-12T01:18:06.222Z,95893.97
2018-12-12T01:20:34.594Z,95885.45
2018-12-12T01:23:06.108Z,95895.04
2018-12-12T01:25:34.491Z,95893.02
2018-12-12T01:28:06.141Z,95895.23
2018-12-12T01:30:34.516Z,95891.30
2018-12-12T01:33:08.123Z,95892.23
2018-12-12T01:35:36.499Z,95891.46
2018-12-12T01:38:05.074Z,95890.44
2018-12-12T01:40:33.461Z,95889.91
2018-12-12T01:43:04.159Z,95888.53
2018-12-12T01:45:32.694Z,95885.06
2018-12-12T01:48:03.685Z,95886.78
2018-12-12T01:50:32.107Z,95887.34
2018-12-12T01:53:00.484Z,95891.56
2018-12-12T01:55:28.905Z,95887.19
2018-12-12T01:57:57.300Z,95884.63
2018-12-12T02:00:25.732Z,95883.53
2018-12-12T02:02:54.361Z,95881.84
2018-12-12T02:05:22.755Z,95881.41
2018-12-12T02:07:51.440Z,95885.75
2018-12-12T02:10:19.980Z,95881.78
2018-12-12T02:12:58.295Z,95887.53
2018-12-12T02:15:26.704Z,95883.06
2018-12-12T02:17:55.081Z,95888.30
2018-12-12T02:20:23.467Z,95880.00
2018-12-12T02:22:51.896Z,95879.73
2018-12-12T02:25:20.276Z,95876.56
2018-12-12T02:27:48.676Z,95874.69
2018-12-12T02:30:17.092Z,95873.45
2018-12-12T02:32:45.464Z,95876.56
2018-12-12T02:35:13.888Z,95873.80
2018-12-12T02:37:42.274Z,95871.12
2018-12-12T02:40:10.957Z,95868.49
2018-12-12T02:42:39.520Z,95857.63
2018-12-12T02:45:08.051Z,95862.23
2018-12-12T02:47:36.536Z,95851.38
2018-12-12T02:50:05.522Z,95860.79
2018-12-12T02:52:33.920Z,95862.23
2018-12-12T02:55:04.602Z,95863.67
2018-12-12T02:57:32.993Z,95857.44
2018-12-12T03:00:04.165Z,95862.39
2018-12-12T03:02:32.859Z,95853.89
2018-12-12T03:05:03.690Z,95860.34
2018-12-12T03:07:32.173Z,95867.52
2018-12-12T03:10:00.604Z,95858.91
2018-12-12T03:12:28.981Z,95857.16
2018-12-12T03:14:57.385Z,95864.66
2018-12-12T03:17:25.762Z,95857.48
2018-12-12T03:19:54.177Z,95866.94
2018-12-12T03:22:22.571Z,95868.49
2018-12-12T03:24:51.009Z,95866.57
2018-12-12T03:27:19.390Z,95874.77
2018-12-12T03:29:47.776Z,95868.95
2018-12-12T03:32:16.183Z,95867.17
2018-12-12T03:34:44.691Z,95868.78
2018-12-12T03:37:13.108Z,95868.34
2018-12-12T03:39:42.430Z,95859.59
2018-12-12T03:42:11.366Z,95864.50
2018-12-12T03:44:39.809Z,95861.21
2018-12-12T03:47:08.360Z,95864.95
2018-12-12T03:54:44.286Z,95853.34
2018-12-12T03:57:12.658Z,95853.11
2018-12-12T03:59:41.069Z,95855.59
2018-12-12T04:02:09.516Z,95852.16
2018-12-12T04:04:37.897Z,95844.93
2018-12-12T04:07:06.320Z,95855.32
2018-12-12T04:09:34.708Z,95853.66
2018-12-12T04:12:05.425Z,95851.10
2018-12-12T04:14:33.800Z,95851.20
2018-12-12T04:17:07.853Z,95859.11
2018-12-12T04:19:36.248Z,95862.66
2018-12-12T04:22:05.164Z,95852.00
2018-12-12T04:24:33.974Z,95851.09
2018-12-12T04:27:04.376Z,95860.27
2018-12-12T04:29:32.773Z,95864.79
2018-12-12T04:32:03.804Z,95856.44
2018-12-12T04:34:32.180Z,95849.67
2018-12-12T04:37:00.559Z,95855.77
2018-12-12T04:39:28.974Z,95857.34
2018-12-12T04:41:58.729Z,95848.70
2018-12-12T04:44:27.280Z,95857.78
2018-12-12T04:46:55.752Z,95858.36
2018-12-12T04:49:24.389Z,95855.80
2018-12-12T04:51:52.764Z,95844.47
2018-12-12T04:54:21.181Z,95850.66
2018-12-12T04:56:49.588Z,95850.42
2018-12-12T04:59:18.312Z,95852.77
2018-12-12T05:01:46.735Z,95861.70
2018-12-12T05:04:15.123Z,95861.90
2018-12-12T05:06:43.535Z,95863.33
2018-12-12T05:09:11.958Z,95861.64
2018-12-12T05:11:40.373Z,95858.25
2018-12-12T05:14:08.780Z,95862.86
2018-12-12T05:16:37.184Z,95869.44
2018-12-12T05:19:05.576Z,95868.59
2018-12-12T05:21:33.988Z,95864.25
2018-12-12T05:24:04.656Z,95865.44
2018-12-12T05:26:33.073Z,95864.77
2018-12-12T05:29:03.724Z,95858.78
2018-12-12T05:31:32.132Z,95867.33
2018-12-12T05:34:00.515Z,95867.49
2018-12-12T05:36:28.901Z,95870.37
2018-12-12T05:38:57.325Z,95866.85
2018-12-12T05:41:25.943Z,95866.32
2018-12-12T05:43:57.632Z,95868.88
2018-12-12T05:46:24.716Z,95865.22
2018-12-12T05:48:53.205Z,95864.82
2018-12-12T05:51:21.599Z,95865.82
2018-12-12T05:53:50.104Z,95874.27
2018-12-12T05:56:18.551Z,95871.02
2018-12-12T05:58:46.936Z,95872.30
2018-12-12T06:01:15.427Z,95870.00
2018-12-12T06:03:43.840Z,95869.87
2018-12-12T06:06:12.571Z,95868.16
2018-12-12T06:08:40.963Z,95881.21
2018-12-12T06:11:09.352Z,95878.60
2018-12-12T06:13:37.759Z,95882.81
2018-12-12T06:16:06.151Z,95889.35
2018-12-12T06:18:34.567Z,95884.11
2018-12-12T06:21:07.459Z,95881.55
2018-12-12T06:23:35.888Z,95881.21
2018-12-12T06:26:05.631Z,95877.44
2018-12-12T06:28:34.015Z,95878.94
2018-12-12T06:31:05.340Z,95878.97
2018-12-12T06:33:33.721Z,95885.73
2018-12-12T06:36:05.614Z,95886.48
2018-12-12T06:38:34.008Z,95877.98
2018-12-12T06:41:05.545Z,95894.09
2018-12-12T06:43:33.936Z,95889.64
2018-12-12T06:46:05.136Z,95885.74
2018-12-12T06:48:33.567Z,95881.41
2018-12-12T06:51:04.572Z,95899.36
2018-12-12T06:53:33.303Z,95892.81
2018-12-12T06:58:35.741Z,95890.32
2018-12-12T07:01:06.048Z,95894.72
2018-12-12T07:03:34.545Z,95890.04
2018-12-12T07:06:05.901Z,95898.80
2018-12-12T07:08:34.278Z,95901.73
2018-12-12T07:11:05.551Z,95892.25
2018-12-12T07:13:35.882Z,95899.08
2018-12-12T07:16:06.144Z,95899.30
2018-12-12T07:18:34.547Z,95902.70
2018-12-12T07:21:05.855Z,95907.66
2018-12-12T07:23:34.247Z,95902.98
2018-12-12T07:26:05.023Z,95904.66
2018-12-12T07:28:33.401Z,95893.94
2018-12-12T07:31:04.453Z,95891.91
2018-12-12T07:33:32.829Z,95903.60
2018-12-12T07:36:03.581Z,95893.37
2018-12-12T07:38:31.975Z,95893.97
2018-12-12T07:41:00.388Z,95894.75
2018-12-12T07:43:28.762Z,95895.44
2018-12-12T07:45:57.209Z,95894.31
2018-12-12T07:48:25.637Z,95900.17
2018-12-12T07:50:54.062Z,95900.61
2018-12-12T07:53:22.467Z,95901.39
2018-12-12T07:55:51.108Z,95902.66
2018-12-12T07:58:19.492Z,95905.81
2018-12-12T08:00:47.928Z,95900.86
2018-12-12T08:03:16.310Z,95906.31
2018-12-12T08:05:44.724Z,95895.27
2018-12-12T08:08:13.113Z,95891.41
2018-12-12T08:10:42.132Z,95897.18
2018-12-12T08:13:10.516Z,95891.04
2018-12-12T08:15:38.917Z,95895.13
2018-12-12T08:18:07.360Z,95897.34
2018-12-12T08:20:35.750Z,95902.83
2018-12-12T08:23:05.196Z,95904.50
2018-12-12T08:25:34.367Z,95904.06
2018-12-12T08:28:05.405Z,95909.08
2018-12-12T08:30:33.800Z,95911.64
2018-12-12T08:33:10.943Z,95912.58
2018-12-12T08:35:35.033Z,95922.08
2018-12-12T08:38:05.186Z,95916.75
2018-12-12T08:40:33.623Z,95907.80
2018-12-12T08:43:05.404Z,95911.32
2018-12-12T08:45:33.804Z,95910.22
2018-12-12T08:48:05.343Z,95912.49
2018-12-12T08:50:33.744Z,95913.00
2018-12-12T08:53:05.921Z,95911.43
2018-12-12T08:55:34.344Z,95914.05
2018-12-12T08:58:05.285Z,95913.69
2018-12-12T09:00:33.668Z,95910.72
2018-12-12T09:03:04.700Z,95919.34
2018-12-12T09:05:33.327Z,95913.38
2018-12-12T09:08:03.652Z,95915.16
2018-12-12T09:10:32.065Z,95912.77
2018-12-12T09:13:00.455Z,95919.12
2018-12-12T09:15:29.156Z,95921.34
2018-12-12T09:17:57.549Z,95917.55
2018-12-12T09:20:25.960Z,95914.56
2018-12-12T09:22:54.371Z,95919.23
2018-12-12T09:25:22.800Z,95918.39
2018-12-12T09:27:51.192Z,95918.83
2018-12-12T09:30:19.952Z,95914.56
2018-12-12T09:32:48.392Z,95911.05
2018-12-12T09:35:16.809Z,95910.70
2018-12-12T09:37:45.204Z,95914.38
2018-12-12T09:40:13.637Z,95914.63
2018-12-12T09:42:42.030Z,95907.48
2018-12-12T09:45:10.568Z,95905.70
2018-12-12T09:47:39.210Z,95903.92
2018-12-12T09:50:07.845Z,95913.17
2018-12-12T09:52:36.272Z,95906.11
2018-12-12T09:55:05.971Z,95898.09
2018-12-12T09:57:34.356Z,95904.26
2018-12-12T10:00:06.096Z,95902.17
2018-12-12T10:02:34.540Z,95895.88
2018-12-12T10:05:06.231Z,95903.42
2018-12-12T10:07:34.665Z,95899.48
2018-12-12T10:10:05.963Z,95904.33
2018-12-12T10:12:34.415Z,95896.75
2018-12-12T10:15:05.506Z,95901.13
2018-12-12T10:17:33.912Z,95895.41
2018-12-12T10:20:05.460Z,95900.22
2018-12-12T10:22:33.851Z,95896.98
2018-12-12T10:25:04.660Z,95892.31
2018-12-12T10:27:33.082Z,95894.90
2018-12-12T10:30:03.597Z,95897.12
2018-12-12T10:32:32.008Z,95899.75
2018-12-12T10:35:00.405Z,95896.68
2018-12-12T10:37:28.836Z,95887.20
2018-12-12T10:39:57.345Z,95886.18
2018-12-12T10:42:25.824Z,95881.84
2018-12-12T10:44:54.475Z,95881.49
2018-12-12T10:47:22.971Z,95886.17
2018-12-12T10:49:51.365Z,95881.25
2018-12-12T10:52:19.777Z,95875.85
2018-12-12T10:54:48.184Z,95873.29
2018-12-12T10:57:16.608Z,95879.36
2018-12-12T10:59:45.004Z,95878.34
2018-12-12T11:02:18.894Z,95879.95
2018-12-12T11:04:47.297Z,95873.33
2018-12-12T11:07:15.747Z,95875.01
2018-12-12T11:09:44.248Z,95876.38
2018-12-12T11:12:12.645Z,95870.66
2018-12-12T11:14:41.084Z,95871.41
2018-12-12T11:17:09.495Z,95861.33
2018-12-12T11:19:37.920Z,95855.52
2018-12-12T11:22:06.316Z,95861.09
2018-12-12T11:24:34.733Z,95859.39
2018-12-12T11:27:05.204Z,95861.25
2018-12-12T11:29:33.632Z,95868.67
2018-12-12T11:32:04.665Z,95856.12
2018-12-12T11:34:33.080Z,95855.34
2018-12-12T11:37:03.634Z,95855.89
2018-12-12T11:39:32.052Z,95855.63
2018-12-12T11:42:00.426Z,95853.92
2018-12-12T11:44:28.844Z,95852.53
2018-12-12T11:46:58.033Z,95853.45
2018-12-12T11:49:26.614Z,95849.54
2018-12-12T11:51:54.999Z,95847.52
2018-12-12T11:54:23.460Z,95848.47
2018-12-12T11:56:51.877Z,95844.85
2018-12-12T11:59:20.257Z,95843.23
2018-12-12T12:01:48.692Z,95837.28
2018-12-12T12:04:17.083Z,95833.25
2018-12-12T12:06:45.512Z,95839.80
2018-12-12T12:09:13.915Z,95844.59
2018-12-12T12:11:42.339Z,95838.04
2018-12-12T12:14:10.800Z,95834.02
2018-12-12T12:16:39.247Z,95834.97
2018-12-12T12:19:07.640Z,95835.78
2018-12-12T12:21:36.089Z,95835.89
2018-12-12T12:24:05.176Z,95828.61
2018-12-12T12:26:33.825Z,95832.19
2018-12-12T12:29:07.984Z,95829.00
2018-12-12T12:31:36.607Z,95822.33
2018-12-12T12:34:05.449Z,95827.80
2018-12-12T12:36:33.835Z,95824.72
2018-12-12T12:39:05.145Z,95825.42
2018-12-12T12:41:33.524Z,95827.39
2018-12-12T12:44:03.672Z,95822.39
2018-12-12T12:46:32.134Z,95820.41
2018-12-12T12:49:00.531Z,95822.39
2018-12-12T12:51:28.960Z,95820.66
2018-12-12T12:53:57.351Z,95820.41
2018-12-12T12:56:25.790Z,95817.11
2018-12-12T12:58:54.168Z,95817.11
2018-12-12T13:01:22.608Z,95811.70
2018-12-12T13:03:51.011Z,95808.16
2018-12-12T13:06:19.452Z,95804.72
2018-12-12T13:08:47.859Z,95811.56
2018-12-12T13:11:16.297Z,95809.06
2018-12-12T13:13:44.697Z,95808.55
2018-12-12T13:16:13.263Z,95809.58
2018-12-12T13:18:41.719Z,95797.67
2018-12-12T13:21:10.159Z,95799.40
2018-12-12T13:23:38.540Z,95803.82
2018-12-12T13:26:07.337Z,95802.55
2018-12-12T13:28:35.731Z,95797.35
2018-12-12T13:31:06.556Z,95802.66
2018-12-12T13:33:34.987Z,95799.02
2018-12-12T13:36:06.023Z,95796.78
2018-12-12T13:38:34.474Z,95791.73
2018-12-12T13:41:07.566Z,95794.85
2018-12-12T13:43:36.004Z,95785.58
2018-12-12T13:46:04.980Z,95786.72
2018-12-12T13:48:33.948Z,95783.56
2018-12-12T13:51:04.747Z,95787.86
2018-12-12T13:53:33.172Z,95786.66
2018-12-12T13:56:05.067Z,95784.09
2018-12-12T13:58:33.619Z,95782.41
2018-12-12T14:01:06.887Z,95777.41
2018-12-12T14:03:35.340Z,95776.69
2018-12-12T14:06:05.145Z,95775.97
2018-12-12T14:08:33.548Z,95778.41
2018-12-12T14:11:05.181Z,95778.86
2018-12-12T14:13:33.572Z,95775.33
2018-12-12T14:16:03.683Z,95778.13
2018-12-12T14:18:32.096Z,95773.08
2018-12-12T14:21:00.841Z,95772.00
2018-12-12T14:23:29.355Z,95775.33
2018-12-12T14:25:58.603Z,95772.77
2018-12-12T14:28:26.987Z,95768.39
2018-12-12T14:30:55.381Z,95770.44
2018-12-12T14:33:23.877Z,95776.25
2018-12-12T14:35:52.330Z,95771.13
2018-12-12T14:38:21.810Z,95771.11
2018-12-12T14:40:50.260Z,95771.38
2018-12-12T14:43:18.644Z,95762.11
2018-12-12T14:45:47.072Z,95766.28
2018-12-12T14:48:15.504Z,95753.86
2018-12-12T14:50:43.944Z,95754.18
2018-12-12T14:53:12.353Z,95754.89
2018-12-12T14:55:40.736Z,95752.24
2018-12-12T14:58:09.193Z,95755.57
2018-12-12T15:00:37.840Z,95757.92
2018-12-12T15:03:06.703Z,95757.00
2018-12-12T15:05:35.180Z,95754.16
2018-12-12T15:08:05.856Z,95753.39
2018-12-12T15:10:34.248Z,95745.17
2018-12-12T15:13:09.156Z,95744.41
2018-12-12T15:15:37.544Z,95745.36
2018-12-12T15:18:06.692Z,95745.64
2018-12-12T15:20:35.115Z,95746.98
2018-12-12T15:23:05.897Z,95743.77
2018-12-12T15:25:35.800Z,95739.98
2018-12-12T15:28:08.040Z,95738.02
2018-12-12T15:30:36.432Z,95742.00
2018-12-12T15:33:05.865Z,95737.20
2018-12-12T15:35:34.612Z,95738.05
2018-12-12T15:38:09.788Z,95737.29
2018-12-12T15:40:38.220Z,95733.63
2018-12-12T15:43:06.965Z,95736.19
2018-12-12T15:45:35.636Z,95737.70
2018-12-12T15:48:05.788Z,95741.33
2018-12-12T15:50:34.181Z,95740.64
2018-12-12T15:53:04.496Z,95737.81
2018-12-12T15:55:32.896Z,95741.13
2018-12-12T15:58:03.536Z,95742.41
2018-12-12T16:00:32.247Z,95739.53
2018-12-12T16:03:00.925Z,95740.73
2018-12-12T16:05:29.308Z,95739.98
2018-12-12T16:07:57.708Z,95738.70
2018-12-12T16:10:26.254Z,95737.18
2018-12-12T16:12:55.040Z,95737.50
2018-12-12T16:15:23.763Z,95732.72
2018-12-12T16:17:52.152Z,95737.55
2018-12-12T16:20:20.588Z,95729.58
2018-12-12T16:22:49.420Z,95741.45
2018-12-12T16:25:18.869Z,95739.77
2018-12-12T16:27:47.257Z,95736.59
2018-12-12T16:30:15.897Z,95741.36
2018-12-12T16:32:44.649Z,95737.88
2018-12-12T16:35:13.069Z,95736.59
2018-12-12T16:37:41.511Z,95735.84
2018-12-12T16:40:11.808Z,95742.73
2018-12-12T16:42:40.203Z,95736.36
2018-12-12T16:45:08.872Z,95735.69
2018-12-12T16:47:37.368Z,95738.38
2018-12-12T16:50:07.195Z,95738.02
2018-12-12T16:52:35.688Z,95741.11
2018-12-12T16:55:07.537Z,95740.27
2018-12-12T16:57:35.999Z,95733.33
2018-12-12T17:00:08.200Z,95737.10
2018-12-12T17:02:36.649Z,95731.13
2018-12-12T17:05:06.600Z,95739.22
2018-12-12T17:07:35.430Z,95731.75
2018-12-12T17:10:10.548Z,95739.09
2018-12-12T17:12:37.808Z,95733.12
2018-12-12T17:15:07.493Z,95728.30
2018-12-12T17:17:35.969Z,95726.17
2018-12-12T17:20:08.845Z,95730.23
2018-12-12T17:22:37.343Z,95726.70
2018-12-12T17:25:06.080Z,95727.54
2018-12-12T17:27:34.617Z,95728.30
2018-12-12T17:30:12.756Z,95729.32
2018-12-12T17:32:41.161Z,95729.11
2018-12-12T17:35:10.124Z,95723.61
2018-12-12T17:37:38.540Z,95723.97
2018-12-12T17:40:07.305Z,95724.19
2018-12-12T17:42:35.704Z,95728.97
2018-12-12T17:45:09.296Z,95719.23
2018-12-12T17:47:37.764Z,95724.67
2018-12-12T17:50:07.204Z,95721.66
2018-12-12T17:52:35.630Z,95720.95
2018-12-12T17:55:06.294Z,95722.41
2018-12-12T17:57:34.767Z,95725.96
2018-12-12T18:00:06.190Z,95726.48
2018-12-12T18:02:34.628Z,95722.45
2018-12-12T18:05:05.983Z,95723.97
2018-12-12T18:07:34.668Z,95723.39
2018-12-12T18:10:05.525Z,95718.88
2018-12-12T18:12:33.913Z,95725.58
2018-12-12T18:15:04.650Z,95728.13
2018-12-12T18:17:33.085Z,95732.30
2018-12-12T18:20:03.669Z,95740.84
2018-12-12T18:22:32.552Z,95729.15
2018-12-12T18:25:04.944Z,95734.65
2018-12-12T18:27:33.352Z,95730.56
2018-12-12T18:30:04.231Z,95730.17
2018-12-12T18:32:32.642Z,95728.61
2018-12-12T18:35:03.674Z,95729.72
2018-12-12T18:37:32.105Z,95724.52
2018-12-12T18:40:00.592Z,95729.80
2018-12-12T18:42:29.124Z,95723.88
2018-12-12T18:44:57.807Z,95721.91
2018-12-12T18:47:26.197Z,95721.13
2018-12-12T18:49:54.964Z,95723.36
2018-12-12T18:52:23.386Z,95715.88
2018-12-12T18:54:51.766Z,95715.69
2018-12-12T18:57:20.262Z,95717.19
2018-12-12T18:59:48.666Z,95716.89
2018-12-12T19:02:17.059Z,95713.45
2018-12-12T19:04:45.502Z,95715.05
2018-12-12T19:07:14.007Z,95709.08
2018-12-12T19:09:42.428Z,95705.23
2018-12-12T19:12:10.824Z,95712.14
2018-12-12T19:14:43.387Z,95713.64
2018-12-12T19:17:11.876Z,95708.22
2018-12-12T19:19:40.275Z,95709.67
2018-12-12T19:22:08.665Z,95707.47
2018-12-12T19:24:37.432Z,95707.65
2018-12-12T19:27:05.836Z,95701.16
2018-12-12T19:29:34.269Z,95706.16
2018-12-12T19:32:04.597Z,95708.07
2018-12-12T19:34:33.113Z,95703.83
2018-12-12T19:37:03.599Z,95696.58
2018-12-12T19:39:32.005Z,95701.03
2018-12-12T19:42:00.442Z,95693.91
2018-12-12T19:44:28.884Z,95704.36
2018-12-12T19:46:57.338Z,95700.59
2018-12-12T19:49:25.952Z,95692.80
2018-12-12T19:51:54.350Z,95697.41
2018-12-12T19:54:22.730Z,95697.64
2018-12-12T19:56:51.415Z,95700.42
2018-12-12T19:59:20.070Z,95700.44
2018-12-12T20:01:48.511Z,95701.27
2018-12-12T20:04:16.908Z,95691.23
2018-12-12T20:06:45.359Z,95694.49
2018-12-12T20:09:13.787Z,95695.91
2018-12-12T20:11:42.245Z,95687.81
2018-12-12T20:14:10.637Z,95685.69
2018-12-12T20:16:39.274Z,95684.04
2018-12-12T20:19:07.739Z,95682.67
2018-12-12T20:21:36.154Z,95679.00
2018-12-12T20:24:05.828Z,95678.24
2018-12-12T20:26:34.340Z,95679.83
2018-12-12T20:29:06.584Z,95678.81
2018-12-12T20:31:35.028Z,95674.52
2018-12-12T20:34:05.745Z,95673.02
2018-12-12T20:36:34.162Z,95672.70
2018-12-12T20:39:05.428Z,95666.06
2018-12-12T20:41:33.836Z,95666.20
2018-12-12T20:44:08.833Z,95660.09
2018-12-12T20:46:37.275Z,95664.56
2018-12-12T20:49:06.544Z,95661.59
2018-12-12T20:51:34.940Z,95663.41
2018-12-12T20:54:05.785Z,95665.84
2018-12-12T20:56:34.180Z,95657.37
2018-12-12T20:59:04.497Z,95660.69
2018-12-12T21:01:32.893Z,95656.58
2018-12-12T21:04:05.173Z,95664.67
2018-12-12T21:06:33.563Z,95656.34
2018-12-12T21:09:04.816Z,95646.63
2018-12-12T21:11:33.409Z,95642.20
2018-12-12T21:14:04.181Z,95639.98
2018-12-12T21:16:32.571Z,95640.51
2018-12-12T21:19:04.152Z,95637.50
2018-12-12T21:21:32.881Z,95640.95
2018-12-12T21:24:03.465Z,95636.97
2018-12-12T21:26:31.857Z,95640.95
2018-12-12T21:29:00.552Z,95637.28
2018-12-12T21:31:28.956Z,95640.72
2018-12-12T21:33:57.352Z,95636.22
2018-12-12T21:36:26.107Z,95636.74
2018-12-12T21:38:54.587Z,95633.70
2018-12-12T21:41:23.052Z,95628.44
2018-12-12T21:43:51.485Z,95621.66
2018-12-12T21:46:19.872Z,95626.31
2018-12-12T21:48:48.360Z,95625.42
2018-12-12T21:51:16.833Z,95625.20
2018-12-12T21:53:45.237Z,95616.14
2018-12-12T21:56:13.744Z,95612.20
2018-12-12T21:58:42.160Z,95612.59
2018-12-12T22:01:10.548Z,95613.80
2018-12-12T22:03:38.960Z,95614.34
2018-12-12T22:06:07.656Z,95614.95
2018-12-12T22:08:36.316Z,95613.22
2018-12-12T22:11:06.435Z,95612.83
2018-12-12T22:13:34.836Z,95610.13
2018-12-12T22:16:05.256Z,95606.50
2018-12-12T22:18:33.668Z,95608.23
2018-12-12T22:21:05.827Z,95607.34
2018-12-12T22:23:34.239Z,95601.95
2018-12-12T22:26:04.439Z,95608.76
2018-12-12T22:28:32.876Z,95597.21
2018-12-12T22:31:04.425Z,95603.48
2018-12-12T22:33:32.849Z,95603.63
2018-12-12T22:36:03.634Z,95596.45
2018-12-12T22:38:32.454Z,95602.95
2018-12-12T22:41:00.937Z,95597.43
2018-12-12T22:43:29.356Z,95601.41
2018-12-12T22:45:57.873Z,95593.19
2018-12-12T22:48:26.253Z,95588.89
2018-12-12T22:50:54.673Z,95597.34
2018-12-12T22:53:23.106Z,95587.70
2018-12-12T22:55:51.533Z,95583.45
2018-12-12T22:58:19.944Z,95586.33
2018-12-12T23:00:54.084Z,95593.14
2018-12-12T23:03:22.491Z,95585.75
2018-12-12T23:05:50.883Z,95586.20
2018-12-12T23:08:19.292Z,95583.55
2018-12-12T23:10:47.684Z,95579.61
2018-12-12T23:13:16.100Z,95577.88
2018-12-12T23:15:44.475Z,95573.45
2018-12-12T23:18:12.887Z,95569.88
2018-12-12T23:20:42.231Z,95572.39
2018-12-12T23:23:10.843Z,95563.77
2018-12-12T23:25:39.236Z,95561.06
2018-12-12T23:28:07.684Z,95566.25
2018-12-12T23:30:36.068Z,95563.19
2018-12-12T23:33:05.028Z,95561.95
2018-12-12T23:35:33.421Z,95560.37
2018-12-12T23:38:03.661Z,95557.75
2018-12-12T23:40:32.041Z,95560.89
2018-12-12T23:43:00.471Z,95549.08
2018-12-12T23:45:29.390Z,95551.02
2018-12-12T23:47:57.780Z,95540.09
2018-12-12T23:50:26.180Z,95548.68
2018-12-12T23:52:54.847Z,95539.03
2018-12-12T23:55:29.903Z,95535.85
2018-12-12T23:57:58.658Z,95541.73
